Time;durP1;ratioP1;P1;durP2;ratioP2;P2;SDS_P1;SDS_P2;PMS_P1;PMS_P2;Temp;Humidity;BMP_temperature;BMP_pressure;BME280_temperature;BME280_humidity;BME280_pressure;Samples;Min_cycle;Max_cycle;Signal;HPM_P1;HPM_P2
2022/03/02 00:01:54;;;;;;;13.98;7.90;;;1.10;99.90;;;;;;4708284;28;9999904;-75
2022/03/02 00:04:20;;;;;;;12.18;7.53;;;1.00;99.90;;;;;;5057294;28;20476;-76
2022/03/02 00:06:46;;;;;;;13.00;8.20;;;1.00;99.90;;;;;;5060990;28;20024;-75
2022/03/02 00:09:11;;;;;;;11.02;7.18;;;1.00;99.90;;;;;;5056086;28;20028;-76
2022/03/02 00:11:38;;;;;;;12.30;8.02;;;1.00;99.90;;;;;;5063925;28;20078;-75
2022/03/02 00:14:05;;;;;;;11.70;7.65;;;0.90;99.90;;;;;;5068602;28;20553;-75
2022/03/02 00:16:32;;;;;;;13.10;8.38;;;0.90;99.90;;;;;;5056087;28;20032;-76
2022/03/02 00:32:25;;;;;;;13.45;8.73;;;0.90;99.90;;;;;;5056546;28;20035;-75
2022/03/02 00:34:51;;;;;;;16.27;9.38;;;0.90;99.90;;;;;;5048427;28;20037;-75
2022/03/02 00:37:17;;;;;;;15.95;9.57;;;0.90;99.90;;;;;;5047689;28;20044;-75
2022/03/02 00:39:43;;;;;;;15.45;9.95;;;1.00;99.90;;;;;;5058930;28;20667;-75
2022/03/02 00:42:09;;;;;;;14.18;9.43;;;1.10;99.90;;;;;;5057738;28;20048;-75
2022/03/02 00:44:35;;;;;;;15.60;9.90;;;1.30;99.90;;;;;;5055583;28;20032;-75
2022/03/02 00:47:01;;;;;;;13.98;9.13;;;1.30;99.90;;;;;;5058451;28;20024;-75
2022/03/02 00:49:27;;;;;;;16.85;10.20;;;1.30;99.90;;;;;;5057061;28;20105;-75
2022/03/02 00:51:56;;;;;;;15.90;10.57;;;1.30;99.90;;;;;;5055916;28;20029;-75
2022/03/02 00:54:22;;;;;;;15.32;9.60;;;1.30;99.90;;;;;;5059698;28;20499;-75
2022/03/02 00:56:47;;;;;;;15.60;9.20;;;1.30;99.90;;;;;;5064877;28;20033;-75
2022/03/02 00:59:13;;;;;;;14.38;9.05;;;1.20;99.90;;;;;;5062710;28;20036;-76
2022/03/02 01:01:38;;;;;;;14.48;9.63;;;1.20;99.90;;;;;;5064532;28;20043;-75
2022/03/02 01:04:04;;;;;;;14.13;8.90;;;1.10;99.90;;;;;;5063360;28;20029;-75
2022/03/02 01:06:30;;;;;;;14.45;9.30;;;1.10;99.90;;;;;;5061659;28;20126;-75
2022/03/02 01:08:56;;;;;;;13.75;8.75;;;1.10;99.90;;;;;;5053085;28;20059;-76
2022/03/02 01:11:21;;;;;;;15.27;9.35;;;1.00;99.90;;;;;;5061373;28;20016;-75
2022/03/02 01:13:47;;;;;;;13.82;9.38;;;1.00;99.90;;;;;;5058309;28;20510;-76
2022/03/02 01:16:14;;;;;;;13.30;7.95;;;1.00;99.90;;;;;;5063268;28;20020;-75
2022/03/02 01:18:40;;;;;;;12.23;8.23;;;1.00;99.90;;;;;;5057454;28;20495;-75
2022/03/02 01:21:06;;;;;;;14.13;8.63;;;1.00;99.90;;;;;;5057871;28;20036;-76
2022/03/02 01:23:32;;;;;;;14.32;8.73;;;0.90;99.90;;;;;;5065019;28;20032;-75
2022/03/02 01:25:58;;;;;;;14.20;9.13;;;0.90;99.90;;;;;;5059168;28;20033;-75
2022/03/02 01:28:24;;;;;;;15.55;9.10;;;0.90;99.90;;;;;;5057914;28;20396;-75
2022/03/02 01:30:50;;;;;;;15.60;8.57;;;0.90;99.90;;;;;;5055449;28;20033;-75
2022/03/02 01:33:15;;;;;;;13.23;8.90;;;0.90;99.90;;;;;;5062005;28;20044;-75
2022/03/02 01:35:41;;;;;;;16.17;9.35;;;0.90;99.90;;;;;;5060583;28;20132;-75
2022/03/02 01:38:07;;;;;;;16.50;9.27;;;0.90;99.90;;;;;;5057430;28;20660;-75
2022/03/02 01:40:33;;;;;;;15.00;8.98;;;0.90;99.90;;;;;;5058109;28;20024;-75
2022/03/02 01:42:58;;;;;;;12.98;8.63;;;0.90;99.90;;;;;;5063559;28;20047;-75
2022/03/02 01:45:24;;;;;;;12.77;8.65;;;0.90;99.90;;;;;;5059396;28;20063;-76
2022/03/02 01:47:50;;;;;;;17.00;9.32;;;0.90;99.90;;;;;;5064373;28;20456;-75
2022/03/02 01:50:16;;;;;;;14.82;9.27;;;0.90;99.90;;;;;;5063403;28;20094;-75
2022/03/02 01:52:42;;;;;;;16.67;10.60;;;0.90;99.90;;;;;;5051875;28;20028;-75
2022/03/02 01:55:09;;;;;;;19.15;10.48;;;1.00;99.90;;;;;;5061341;28;20020;-76
2022/03/02 01:57:35;;;;;;;16.25;10.20;;;1.10;99.90;;;;;;5059809;28;20035;-75
2022/03/02 02:00:06;;;;;;;18.42;11.27;;;1.10;99.90;;;;;;5065397;28;20040;-76
2022/03/02 02:02:31;;;;;;;18.17;11.43;;;1.10;99.90;;;;;;5056113;28;20039;-75
2022/03/02 02:04:57;;;;;;;23.98;13.43;;;1.20;99.90;;;;;;5057692;28;20240;-75
2022/03/02 02:07:24;;;;;;;21.60;13.70;;;1.30;99.90;;;;;;5058681;28;20676;-75
2022/03/02 02:09:50;;;;;;;23.63;14.75;;;1.40;99.90;;;;;;5057477;28;20043;-76
2022/03/02 02:12:15;;;;;;;23.65;14.52;;;1.60;99.90;;;;;;5061539;28;20016;-75
2022/03/02 02:14:42;;;;;;;23.73;13.93;;;1.70;99.90;;;;;;5065519;28;20531;-76
2022/03/02 02:17:08;;;;;;;22.30;14.52;;;1.70;99.90;;;;;;5052502;28;20061;-76
2022/03/02 02:19:33;;;;;;;23.20;14.15;;;1.80;99.90;;;;;;5051117;28;20060;-76
2022/03/02 02:21:59;;;;;;;23.23;14.68;;;1.80;99.90;;;;;;5051283;28;20028;-75
2022/03/02 02:24:24;;;;;;;22.65;14.07;;;1.80;99.90;;;;;;5055165;28;20059;-75
2022/03/02 02:26:50;;;;;;;25.70;14.85;;;1.80;99.90;;;;;;5053570;28;20503;-76
2022/03/02 02:29:16;;;;;;;21.98;13.75;;;1.80;99.90;;;;;;5056391;28;20021;-75
2022/03/02 02:31:41;;;;;;;24.40;14.77;;;1.80;99.90;;;;;;5059745;28;20700;-76
2022/03/02 02:34:07;;;;;;;23.70;14.55;;;1.80;99.90;;;;;;5051343;28;20139;-75
2022/03/02 02:36:33;;;;;;;22.55;14.43;;;1.80;99.90;;;;;;5060103;28;20117;-76
2022/03/02 02:38:58;;;;;;;24.42;14.02;;;1.80;99.90;;;;;;5058549;28;20678;-76
2022/03/02 02:41:24;;;;;;;20.77;13.40;;;1.80;99.90;;;;;;5063044;28;20110;-75
2022/03/02 02:43:50;;;;;;;21.98;12.50;;;1.70;99.90;;;;;;5064379;28;20044;-75
2022/03/02 02:46:16;;;;;;;19.80;12.95;;;1.80;99.90;;;;;;5061686;28;20061;-76
2022/03/02 02:48:42;;;;;;;21.00;12.60;;;1.70;99.90;;;;;;5062916;28;20527;-75
2022/03/02 02:51:08;;;;;;;22.02;12.45;;;1.80;99.90;;;;;;5054832;28;20079;-76
2022/03/02 02:53:34;;;;;;;20.38;12.38;;;1.80;99.90;;;;;;5053701;28;20111;-75
2022/03/02 02:56:01;;;;;;;19.75;11.88;;;1.90;99.90;;;;;;5053162;28;20040;-76
2022/03/02 02:58:26;;;;;;;19.55;11.77;;;1.90;99.90;;;;;;5053857;28;20469;-76
2022/03/02 03:00:52;;;;;;;18.60;11.98;;;2.00;99.90;;;;;;5051801;28;20052;-76
2022/03/02 03:03:19;;;;;;;17.17;11.05;;;2.00;99.90;;;;;;5057543;28;20516;-76
2022/03/02 03:05:44;;;;;;;17.67;11.20;;;2.00;99.90;;;;;;5054847;28;20058;-76
2022/03/02 03:08:12;;;;;;;20.67;12.35;;;1.90;99.90;;;;;;5053196;28;20063;-76
2022/03/02 03:10:39;;;;;;;22.33;12.88;;;1.70;99.90;;;;;;5054841;28;20040;-75
2022/03/02 03:13:05;;;;;;;18.80;11.40;;;1.70;99.90;;;;;;5053632;28;20032;-75
2022/03/02 03:15:30;;;;;;;18.27;10.68;;;1.70;99.90;;;;;;5050826;28;20145;-75
2022/03/02 03:17:56;;;;;;;18.33;10.32;;;1.70;99.90;;;;;;5054305;28;21451;-75
2022/03/02 03:20:25;;;;;;;16.52;10.95;;;1.70;99.90;;;;;;5055988;28;20577;-75
2022/03/02 03:22:51;;;;;;;18.08;10.90;;;1.70;99.90;;;;;;5052097;28;20035;-75
2022/03/02 03:25:17;;;;;;;19.17;11.48;;;1.80;99.90;;;;;;5051517;28;20029;-75
2022/03/02 03:27:43;;;;;;;17.98;11.32;;;1.90;99.90;;;;;;5054857;28;20029;-75
2022/03/02 03:30:11;;;;;;;19.33;11.27;;;1.90;99.90;;;;;;5053591;28;20119;-75
2022/03/02 03:32:37;;;;;;;16.52;11.63;;;1.90;99.90;;;;;;5061956;28;20037;-75
2022/03/02 03:35:05;;;;;;;17.80;10.88;;;1.90;99.90;;;;;;5058392;28;20116;-76
2022/03/02 03:37:30;;;;;;;16.95;9.88;;;1.90;99.90;;;;;;5060251;28;20032;-75
2022/03/02 03:39:56;;;;;;;16.23;10.25;;;1.80;99.90;;;;;;5061715;28;20040;-75
2022/03/02 03:42:25;;;;;;;17.17;10.90;;;1.70;99.90;;;;;;5054985;28;20143;-75
2022/03/02 03:44:50;;;;;;;19.02;11.93;;;1.80;99.90;;;;;;5056950;28;20044;-75
2022/03/02 03:47:16;;;;;;;22.23;11.93;;;1.80;99.90;;;;;;5056104;28;20094;-75
2022/03/02 03:49:42;;;;;;;19.52;11.77;;;1.80;99.90;;;;;;5056745;28;20107;-75
2022/03/02 03:52:09;;;;;;;17.20;11.15;;;1.80;99.90;;;;;;5062913;28;20519;-75
2022/03/02 03:54:35;;;;;;;21.38;11.75;;;1.60;99.90;;;;;;5064073;28;20028;-76
2022/03/02 03:57:00;;;;;;;19.45;11.27;;;1.50;99.90;;;;;;5058418;28;20417;-76
2022/03/02 03:59:26;;;;;;;19.05;11.50;;;1.50;99.90;;;;;;5056229;28;20115;-76
2022/03/02 04:01:51;;;;;;;16.80;10.70;;;1.50;99.90;;;;;;5065038;28;20115;-75
2022/03/02 04:04:17;;;;;;;18.20;10.85;;;1.40;99.90;;;;;;5061809;28;20365;-76
2022/03/02 04:06:42;;;;;;;16.95;10.68;;;1.20;99.90;;;;;;5059685;28;20028;-75
2022/03/02 04:09:08;;;;;;;15.95;10.48;;;1.20;99.90;;;;;;5066398;28;20033;-76
2022/03/02 04:11:34;;;;;;;15.27;10.15;;;1.10;99.90;;;;;;5059388;28;20444;-75
2022/03/02 04:13:59;;;;;;;16.63;10.25;;;1.00;99.90;;;;;;5062898;28;20028;-75
2022/03/02 04:16:25;;;;;;;16.48;10.80;;;0.90;99.90;;;;;;5054070;28;20369;-76
2022/03/02 04:18:50;;;;;;;15.85;10.68;;;0.90;99.90;;;;;;5059740;28;20025;-75
2022/03/02 04:21:16;;;;;;;17.02;11.00;;;0.90;99.90;;;;;;5067209;28;20111;-75
2022/03/02 04:23:42;;;;;;;17.95;11.13;;;0.90;99.90;;;;;;5063398;28;20091;-75
2022/03/02 04:26:08;;;;;;;18.88;11.25;;;0.90;99.90;;;;;;5060476;28;20053;-75
2022/03/02 04:28:33;;;;;;;19.48;11.90;;;1.00;99.90;;;;;;5064824;28;20063;-76
2022/03/02 04:30:59;;;;;;;18.27;11.70;;;1.00;99.90;;;;;;5060598;28;20074;-76
2022/03/02 04:33:24;;;;;;;19.83;12.13;;;1.10;99.90;;;;;;5055272;28;20063;-76
2022/03/02 04:35:50;;;;;;;19.25;12.52;;;1.30;99.90;;;;;;5062518;28;20078;-75
2022/03/02 04:38:15;;;;;;;18.45;12.23;;;1.40;99.90;;;;;;5061039;28;20400;-76
2022/03/02 04:40:41;;;;;;;18.88;12.38;;;1.50;99.90;;;;;;5055271;28;20024;-76
2022/03/02 04:43:07;;;;;;;20.23;12.05;;;1.40;99.90;;;;;;5061606;28;20238;-74
2022/03/02 04:45:34;;;;;;;18.63;11.35;;;1.30;99.90;;;;;;5062440;28;20090;-76
2022/03/02 04:48:00;;;;;;;18.05;11.75;;;1.20;99.90;;;;;;5057774;28;20036;-75
2022/03/02 04:50:27;;;;;;;18.38;11.75;;;1.10;99.90;;;;;;5060271;28;20321;-76
2022/03/02 04:52:54;;;;;;;19.88;12.02;;;1.00;99.90;;;;;;5067210;28;20107;-76
2022/03/02 04:55:20;;;;;;;18.77;11.85;;;1.00;99.90;;;;;;5063216;28;20025;-76
2022/03/02 04:57:51;;;;;;;19.25;10.98;;;1.00;99.90;;;;;;5063045;28;20469;-74
2022/03/02 05:00:17;;;;;;;18.63;11.45;;;1.00;99.90;;;;;;5056152;28;20033;-75
2022/03/02 05:02:43;;;;;;;20.02;11.77;;;1.10;99.90;;;;;;5057182;28;20033;-75
2022/03/02 05:05:11;;;;;;;20.00;11.88;;;1.20;99.90;;;;;;5052801;28;20036;-76
2022/03/02 05:07:37;;;;;;;17.83;11.50;;;1.30;99.90;;;;;;5060526;28;20021;-75
2022/03/02 05:10:05;;;;;;;18.15;11.57;;;1.40;99.90;;;;;;5052762;28;20032;-75
2022/03/02 05:12:30;;;;;;;20.80;11.77;;;1.60;99.90;;;;;;5054439;28;20567;-75
2022/03/02 05:14:57;;;;;;;18.73;10.93;;;1.70;99.90;;;;;;5057767;28;20024;-74
2022/03/02 05:17:23;;;;;;;20.77;12.15;;;1.80;99.90;;;;;;5059792;28;20020;-76
2022/03/02 05:19:49;;;;;;;18.40;11.85;;;1.90;99.90;;;;;;5054620;28;20119;-76
2022/03/02 05:22:15;;;;;;;18.30;11.50;;;1.90;99.90;;;;;;5056966;28;20090;-76
2022/03/02 05:24:41;;;;;;;18.02;11.07;;;1.90;99.90;;;;;;5052684;28;20033;-76
2022/03/02 05:27:07;;;;;;;16.92;10.60;;;1.90;99.90;;;;;;5057834;28;20032;-76
2022/03/02 05:29:33;;;;;;;17.98;11.13;;;1.80;99.90;;;;;;5053487;28;20036;-76
2022/03/02 05:31:59;;;;;;;15.40;10.07;;;1.80;99.90;;;;;;5057756;28;20024;-76
2022/03/02 05:34:24;;;;;;;17.30;10.05;;;1.70;99.90;;;;;;5051809;28;20035;-76
2022/03/02 05:36:50;;;;;;;18.15;10.65;;;1.50;99.90;;;;;;5060326;28;20384;-76
2022/03/02 05:39:16;;;;;;;17.40;11.45;;;1.40;99.90;;;;;;5059085;28;20017;-76
2022/03/02 05:41:42;;;;;;;16.85;10.90;;;1.40;99.90;;;;;;5057662;28;20370;-76
2022/03/02 05:44:08;;;;;;;16.95;11.45;;;1.30;99.90;;;;;;5053624;28;20044;-75
2022/03/02 05:46:37;;;;;;;19.65;11.75;;;1.30;99.90;;;;;;5056966;28;20041;-75
2022/03/02 05:49:04;;;;;;;15.82;10.55;;;1.30;99.90;;;;;;5052994;28;20064;-75
2022/03/02 05:51:30;;;;;;;19.77;12.43;;;1.20;99.90;;;;;;5050141;28;20107;-75
2022/03/02 05:54:00;;;;;;;18.25;11.68;;;1.20;99.90;;;;;;5057698;28;20032;-75
2022/03/02 05:56:25;;;;;;;24.27;13.68;;;1.30;99.90;;;;;;5062978;28;20037;-76
2022/03/02 05:58:54;;;;;;;23.23;14.27;;;1.40;99.90;;;;;;5063952;28;20501;-75
2022/03/02 06:01:20;;;;;;;22.90;13.32;;;1.50;99.90;;;;;;5055717;28;20097;-76
2022/03/02 06:03:46;;;;;;;24.63;13.75;;;1.50;99.90;;;;;;5057673;28;20068;-76
2022/03/02 06:06:12;;;;;;;25.90;13.90;;;1.60;99.90;;;;;;5062571;28;20040;-76
2022/03/02 06:08:38;;;;;;;22.95;13.77;;;1.60;99.90;;;;;;5062254;28;20053;-76
2022/03/02 06:11:04;;;;;;;24.27;14.23;;;1.60;99.90;;;;;;5060186;28;20063;-76
2022/03/02 06:13:30;;;;;;;22.38;13.82;;;1.70;99.90;;;;;;5056400;28;20028;-75
2022/03/02 06:15:57;;;;;;;23.83;13.60;;;1.70;99.90;;;;;;5058919;28;20224;-76
2022/03/02 06:18:24;;;;;;;22.88;12.82;;;1.70;99.90;;;;;;5057528;28;20028;-76
2022/03/02 06:20:52;;;;;;;22.00;13.30;;;1.70;99.90;;;;;;5057169;28;20033;-76
2022/03/02 06:23:21;;;;;;;22.00;13.05;;;1.70;99.90;;;;;;5051138;28;20110;-76
2022/03/02 06:25:47;;;;;;;24.73;13.40;;;1.70;99.90;;;;;;5053139;28;20028;-76
2022/03/02 06:28:13;;;;;;;20.95;12.88;;;1.70;99.90;;;;;;5057800;28;20244;-76
2022/03/02 06:30:38;;;;;;;21.50;13.32;;;1.70;99.90;;;;;;5053736;28;20503;-78
2022/03/02 06:33:04;;;;;;;23.55;13.48;;;1.70;99.90;;;;;;5056124;28;20468;-79
2022/03/02 06:35:30;;;;;;;23.95;13.70;;;1.70;99.90;;;;;;5070822;28;20028;-78
2022/03/02 06:37:55;;;;;;;22.52;13.57;;;1.70;99.90;;;;;;5060851;28;20032;-79
2022/03/02 06:40:21;;;;;;;19.35;11.85;;;1.60;99.90;;;;;;5066504;28;20032;-79
2022/03/02 06:43:08;;;;;;;19.70;12.25;;;1.60;99.90;;;;;;5061834;28;20135;-79
2022/03/02 06:45:54;;;;;;;22.25;11.95;;;1.60;99.90;;;;;;5064419;28;20037;-78
2022/03/02 06:48:29;;;;;;;20.60;12.68;;;1.60;99.90;;;;;;5063931;28;20037;-78
2022/03/02 06:50:58;;;;;;;22.33;13.45;;;1.60;99.90;;;;;;5062685;28;20082;-78
2022/03/02 06:53:33;;;;;;;24.35;13.40;;;1.60;99.90;;;;;;5066487;28;20029;-78
2022/03/02 06:56:05;;;;;;;22.30;12.63;;;1.70;99.90;;;;;;5060148;28;20526;-78
2022/03/02 06:58:53;;;;;;;21.95;13.45;;;1.80;99.90;;;;;;5059352;28;20036;-79
2022/03/02 07:01:27;;;;;;;23.63;12.50;;;1.70;99.90;;;;;;5057515;28;20130;-78
2022/03/02 07:03:57;;;;;;;21.30;13.02;;;1.80;99.90;;;;;;5054014;28;20036;-78
2022/03/02 07:06:23;;;;;;;21.83;13.52;;;1.80;99.90;;;;;;5056364;28;20502;-78
2022/03/02 07:08:49;;;;;;;22.77;13.48;;;1.80;99.90;;;;;;5062274;28;20419;-78
2022/03/02 07:11:16;;;;;;;22.48;12.07;;;1.80;99.90;;;;;;5056067;28;20032;-78
2022/03/02 07:13:44;;;;;;;21.80;13.07;;;1.80;99.90;;;;;;5058742;28;20108;-78
2022/03/02 07:16:11;;;;;;;20.35;13.13;;;1.80;99.90;;;;;;5063329;28;20041;-78
2022/03/02 07:18:37;;;;;;;23.58;13.23;;;1.80;99.90;;;;;;5055417;28;20452;-78
2022/03/02 07:21:09;;;;;;;25.95;13.57;;;1.90;99.90;;;;;;5061947;28;20119;-78
2022/03/02 07:23:41;;;;;;;22.73;13.50;;;1.90;99.90;;;;;;5057972;28;20048;-78
2022/03/02 07:26:08;;;;;;;20.25;13.00;;;1.90;99.90;;;;;;5053763;28;20036;-78
2022/03/02 07:28:38;;;;;;;21.70;13.48;;;1.90;99.90;;;;;;5060532;28;20025;-78
2022/03/02 07:31:08;;;;;;;26.13;14.23;;;2.00;99.90;;;;;;5063601;28;20550;-78
2022/03/02 07:33:37;;;;;;;23.52;13.40;;;2.00;99.90;;;;;;5065619;28;20032;-78
2022/03/02 07:36:03;;;;;;;21.92;13.60;;;2.00;99.90;;;;;;5063395;28;20502;-78
2022/03/02 07:38:31;;;;;;;26.33;14.85;;;2.00;99.90;;;;;;5062143;28;20029;-78
2022/03/02 07:40:57;;;;;;;27.13;15.60;;;2.00;99.90;;;;;;5054515;28;20028;-78
2022/03/02 07:43:23;;;;;;;24.88;14.55;;;2.10;99.90;;;;;;5058387;28;20041;-78
2022/03/02 07:45:49;;;;;;;22.33;14.57;;;2.10;99.90;;;;;;5064766;28;20366;-78
2022/03/02 07:48:15;;;;;;;25.00;13.40;;;2.20;99.90;;;;;;5056250;28;20078;-78
2022/03/02 07:50:42;;;;;;;24.73;14.40;;;2.30;99.90;;;;;;5062845;28;20455;-78
2022/03/02 07:53:11;;;;;;;25.20;15.27;;;2.30;99.90;;;;;;5060290;28;20039;-78
2022/03/02 07:55:38;;;;;;;25.75;14.63;;;2.40;99.90;;;;;;5055661;28;20029;-78
2022/03/02 07:58:04;;;;;;;25.02;14.80;;;2.40;99.90;;;;;;5060499;28;20037;-78
2022/03/02 08:00:30;;;;;;;27.33;14.63;;;2.40;99.90;;;;;;5072342;28;20136;-78
2022/03/02 08:03:00;;;;;;;30.27;15.38;;;2.50;99.90;;;;;;5066200;28;20512;-78
2022/03/02 08:05:26;;;;;;;26.00;15.90;;;2.50;99.90;;;;;;5054874;28;20021;-78
2022/03/02 08:07:52;;;;;;;26.17;15.65;;;2.50;99.90;;;;;;5067389;28;20035;-78
2022/03/02 08:10:19;;;;;;;27.70;15.82;;;2.60;99.90;;;;;;5067537;28;20401;-78
2022/03/02 08:12:45;;;;;;;25.05;14.90;;;2.60;99.90;;;;;;5067337;28;20025;-78
2022/03/02 08:15:12;;;;;;;24.23;15.20;;;2.70;99.90;;;;;;5064189;28;20115;-78
2022/03/02 08:17:37;;;;;;;25.48;15.80;;;2.70;99.90;;;;;;5064594;28;20486;-78
2022/03/02 08:20:05;;;;;;;24.67;15.32;;;2.90;99.90;;;;;;5067501;28;20107;-78
2022/03/02 08:22:34;;;;;;;22.52;14.77;;;3.00;99.90;;;;;;5057204;28;20029;-78
2022/03/02 08:25:07;;;;;;;30.85;16.00;;;3.00;99.90;;;;;;5064361;28;20118;-78
2022/03/02 08:27:33;;;;;;;;;;;3.10;99.90;;;;;;5067490;28;20040;-78
2022/03/02 08:30:01;;;;;;;24.40;15.82;;;3.10;99.90;;;;;;5065945;28;19912;-78
2022/03/02 08:32:33;;;;;;;25.70;15.90;;;3.10;99.90;;;;;;5064520;28;20322;-78
2022/03/02 08:34:59;;;;;;;27.08;16.13;;;3.10;99.90;;;;;;5067798;28;20028;-78
2022/03/02 08:37:26;;;;;;;30.00;17.13;;;3.20;99.90;;;;;;5064785;28;20025;-78
2022/03/02 08:39:52;;;;;;;35.92;17.35;;;3.30;99.90;;;;;;5066688;28;20459;-78
2022/03/02 08:42:18;;;;;;;27.95;16.35;;;3.40;99.90;;;;;;5056750;28;20040;-78
2022/03/02 08:44:47;;;;;;;28.05;16.45;;;3.60;99.90;;;;;;5062112;28;20036;-78
2022/03/02 08:47:14;;;;;;;27.52;16.77;;;3.70;99.90;;;;;;5060346;28;20038;-78
2022/03/02 08:49:39;;;;;;;33.10;18.08;;;3.80;99.90;;;;;;5061566;28;20120;-78
2022/03/02 08:52:06;;;;;;;30.67;17.83;;;3.90;99.90;;;;;;5067943;28;20095;-78
2022/03/02 08:54:39;;;;;;;32.22;17.73;;;4.00;99.90;;;;;;5060585;28;20031;-78
2022/03/02 08:57:05;;;;;;;27.08;12.85;;;4.10;99.90;;;;;;5063106;28;20040;-78
2022/03/02 08:59:33;;;;;;;29.88;17.48;;;4.10;99.90;;;;;;5067203;28;20557;-78
2022/03/02 09:02:03;;;;;;;30.42;17.15;;;4.20;99.90;;;;;;5063639;28;20170;-77
2022/03/02 09:04:30;;;;;;;27.23;16.08;;;4.20;99.90;;;;;;5056916;28;20036;-79
2022/03/02 09:06:56;;;;;;;29.75;16.77;;;4.20;99.90;;;;;;5063751;28;20767;-80
2022/03/02 09:09:22;;;;;;;24.73;15.13;;;4.20;99.90;;;;;;5060820;28;20032;-80
2022/03/02 09:11:48;;;;;;;23.15;14.50;;;4.30;99.90;;;;;;5061174;28;20548;-81
2022/03/02 09:14:14;;;;;;;22.35;13.02;;;4.40;99.90;;;;;;5063629;28;20031;-80
2022/03/02 09:16:40;;;;;;;21.33;12.57;;;4.50;99.90;;;;;;5059389;28;20029;-80
2022/03/02 09:19:10;;;;;;;23.92;13.13;;;4.60;99.90;;;;;;5064510;28;20028;-80
2022/03/02 09:21:37;;;;;;;19.05;11.30;;;4.70;99.90;;;;;;5059642;28;20118;-80
2022/03/02 09:24:03;;;;;;;19.17;11.90;;;;;;;;;;5065344;28;20043;-80
2022/03/02 09:26:31;;;;;;;16.23;10.95;;;4.90;99.90;;;;;;5058041;28;20033;-81
2022/03/02 09:29:01;;;;;;;18.45;11.93;;;5.10;99.90;;;;;;5062290;28;20028;-81
2022/03/02 09:31:27;;;;;;;17.30;10.88;;;5.30;99.90;;;;;;5055305;28;20116;-81
2022/03/02 09:33:58;;;;;;;17.23;11.15;;;;;;;;;;5066353;28;20427;-80
2022/03/02 09:36:25;;;;;;;17.33;11.60;;;5.60;99.90;;;;;;5057333;28;20397;-81
2022/03/02 09:38:52;;;;;;;20.23;11.77;;;5.90;99.90;;;;;;5056520;28;21412;-81
2022/03/02 09:41:40;;;;;;;17.67;10.95;;;5.90;99.90;;;;;;5061265;28;20027;-81
2022/03/02 09:44:06;;;;;;;19.23;11.00;;;5.90;99.90;;;;;;5063013;28;20048;-80
2022/03/02 09:46:38;;;;;;;16.95;10.73;;;5.70;99.90;;;;;;5057485;28;20090;-81
2022/03/02 09:49:23;;;;;;;18.58;11.45;;;5.70;99.90;;;;;;5053351;28;20476;-80
2022/03/02 09:52:05;;;;;;;15.68;11.13;;;5.70;99.90;;;;;;5065713;28;20055;-81
2022/03/02 09:54:36;;;;;;;17.70;11.10;;;5.80;99.90;;;;;;5058930;28;20487;-80
2022/03/02 09:57:06;;;;;;;17.80;11.48;;;6.00;99.90;;;;;;5062793;28;20100;-80
2022/03/02 09:59:38;;;;;;;20.80;11.13;;;6.00;99.90;;;;;;5063720;28;20041;-80
2022/03/02 10:02:10;;;;;;;16.33;10.57;;;6.00;99.90;;;;;;5061281;28;20043;-81
2022/03/02 10:04:37;;;;;;;18.20;10.52;;;6.20;99.90;;;;;;5060342;28;20033;-81
2022/03/02 10:10:07;;;;;;;18.25;10.25;;;6.30;99.50;;;;;;5067786;28;20032;-80
2022/03/02 10:12:33;;;;;;;16.02;10.50;;;6.40;98.60;;;;;;5059980;28;20025;-82
2022/03/02 10:14:59;;;;;;;15.73;10.02;;;6.40;97.40;;;;;;5062761;28;20025;-81
2022/03/02 10:17:32;;;;;;;16.38;10.40;;;6.60;96.90;;;;;;5054007;28;20564;-80
2022/03/02 10:20:20;;;;;;;16.35;9.77;;;6.60;96.30;;;;;;5055909;28;20033;-81
2022/03/02 10:22:46;;;;;;;14.75;9.63;;;6.70;95.20;;;;;;5062138;28;20412;-80
2022/03/02 10:25:15;;;;;;;13.57;9.68;;;6.90;95.10;;;;;;5070570;28;20036;-81
2022/03/02 10:28:02;;;;;;;15.02;10.05;;;7.00;93.60;;;;;;5066690;28;20025;-82
2022/03/02 10:30:38;;;;;;;15.82;9.68;;;7.10;92.10;;;;;;5056414;28;20075;-81
2022/03/02 10:33:22;;;;;;;14.15;9.30;;;7.10;91.70;;;;;;5060031;28;20025;-82
2022/03/02 10:35:57;;;;;;;16.83;9.40;;;7.10;90.70;;;;;;5055349;28;20028;-82
2022/03/02 10:39:00;;;;;;;18.85;9.95;;;7.10;89.10;;;;;;5060806;28;20031;-82
2022/03/02 10:41:28;;;;;;;15.30;9.75;;;7.20;86.40;;;;;;5057373;28;20052;-82
2022/03/02 10:44:02;;;;;;;14.98;9.13;;;7.30;88.60;;;;;;5064513;28;20508;-81
2022/03/02 10:46:28;;;;;;;16.77;10.20;;;7.40;84.00;;;;;;5065930;28;20261;-81
2022/03/02 10:49:21;;;;;;;15.38;9.50;;;7.60;84.80;;;;;;5065544;28;20036;-80
2022/03/02 10:51:48;;;;;;;20.50;9.88;;;7.60;83.70;;;;;;5052986;28;20029;-81
2022/03/02 10:54:20;;;;;;;12.75;8.95;;;7.70;82.00;;;;;;5056542;28;20308;-82
2022/03/02 10:56:51;;;;;;;15.38;9.55;;;7.70;82.70;;;;;;5064108;28;20069;-80
2022/03/02 10:59:23;;;;;;;14.68;9.55;;;7.70;83.40;;;;;;5054281;28;20040;-80
2022/03/02 11:01:50;;;;;;;19.13;9.27;;;7.80;81.30;;;;;;5058986;28;20080;-81
2022/03/02 11:04:19;;;;;;;15.02;9.77;;;7.90;79.70;;;;;;5060815;28;20051;-81
2022/03/02 11:06:45;;;;;;;13.35;8.80;;;7.90;79.00;;;;;;5057263;28;20041;-81
2022/03/02 11:09:11;;;;;;;14.70;9.23;;;8.00;80.50;;;;;;5063446;28;20168;-80
2022/03/02 11:11:36;;;;;;;14.35;8.57;;;8.10;79.60;;;;;;5063949;28;20166;-79
2022/03/02 11:14:04;;;;;;;13.32;8.48;;;8.20;80.30;;;;;;5053699;28;20111;-82
2022/03/02 11:16:30;;;;;;;16.23;9.55;;;8.30;79.00;;;;;;5066015;28;20021;-79
2022/03/02 11:18:55;;;;;;;13.13;8.93;;;8.40;77.00;;;;;;5062555;28;20035;-80
2022/03/02 11:21:30;;;;;;;13.23;8.55;;;8.60;76.60;;;;;;5066374;28;20028;-80
2022/03/02 11:23:59;;;;;;;13.60;8.95;;;8.60;75.60;;;;;;5066919;28;20028;-81
2022/03/02 11:26:27;;;;;;;11.82;7.97;;;8.70;76.70;;;;;;5063072;28;20039;-80
2022/03/02 11:28:55;;;;;;;11.95;8.68;;;8.90;70.00;;;;;;5064648;28;20032;-82
2022/03/02 11:31:26;;;;;;;15.38;9.27;;;8.90;69.60;;;;;;5064356;28;20036;-80
2022/03/02 11:34:12;;;;;;;14.48;8.57;;;9.00;70.60;;;;;;5061054;28;20025;-83
2022/03/02 11:36:41;;;;;;;12.88;8.55;;;9.10;70.30;;;;;;5059513;28;20029;-83
2022/03/02 11:39:08;;;;;;;13.80;9.15;;;9.10;68.40;;;;;;5053042;28;20031;-83
2022/03/02 11:41:36;;;;;;;13.80;8.77;;;9.20;69.00;;;;;;5053512;28;20048;-84
2022/03/02 11:44:04;;;;;;;14.63;10.18;;;9.30;66.90;;;;;;5051962;28;20406;-83
2022/03/02 11:46:30;;;;;;;17.35;9.73;;;9.30;65.10;;;;;;5051390;28;20029;-83
2022/03/02 11:48:55;;;;;;;17.85;9.93;;;9.40;65.90;;;;;;5055386;28;20029;-83
2022/03/02 11:51:23;;;;;;;12.82;8.07;;;9.40;64.20;;;;;;5054475;28;20102;-83
2022/03/02 11:53:54;;;;;;;12.48;8.48;;;9.40;63.70;;;;;;5059706;28;20021;-83
2022/03/02 11:56:22;;;;;;;13.35;8.60;;;9.50;64.40;;;;;;5054178;28;20026;-83
2022/03/02 11:59:01;;;;;;;10.68;8.10;;;9.50;61.80;;;;;;5062653;28;20126;-83
2022/03/02 12:01:44;;;;;;;12.10;7.50;;;9.60;60.60;;;;;;5063004;28;20551;-84
2022/03/02 12:04:11;;;;;;;10.45;7.50;;;9.50;58.70;;;;;;5058551;28;20396;-84
2022/03/02 12:06:51;;;;;;;11.20;7.50;;;9.40;58.00;;;;;;5059341;28;20113;-82
2022/03/02 12:09:26;;;;;;;10.88;7.80;;;9.40;55.70;;;;;;5061039;28;20265;-82
2022/03/02 12:12:04;;;;;;;14.43;8.15;;;9.50;56.80;;;;;;5066054;28;20025;-82
2022/03/02 12:14:40;;;;;;;12.25;8.25;;;9.50;56.10;;;;;;5066517;28;20031;-83
2022/03/02 12:17:21;;;;;;;12.38;7.13;;;9.60;56.50;;;;;;5054915;28;20068;-82
2022/03/02 12:19:54;;;;;;;11.73;7.50;;;9.80;57.60;;;;;;5059457;28;20059;-83
2022/03/02 12:22:21;;;;;;;11.90;7.60;;;9.90;58.00;;;;;;5045593;28;20393;-83
2022/03/02 12:24:48;;;;;;;11.68;7.65;;;10.00;57.30;;;;;;5063450;28;20452;-83
2022/03/02 12:27:16;;;;;;;12.68;8.05;;;10.10;57.20;;;;;;5065729;28;20099;-83
2022/03/02 12:29:45;;;;;;;12.95;8.00;;;10.10;57.60;;;;;;5060876;28;20548;-83
2022/03/02 12:32:16;;;;;;;11.00;8.05;;;10.20;56.10;;;;;;5059845;28;20199;-83
2022/03/02 12:34:51;;;;;;;10.52;7.15;;;10.30;56.70;;;;;;5056924;28;20027;-83
2022/03/02 12:37:19;;;;;;;10.10;7.28;;;10.50;55.90;;;;;;5059563;28;20016;-83
2022/03/02 12:39:47;;;;;;;10.57;7.60;;;10.60;55.80;;;;;;5059830;28;20111;-83
2022/03/02 12:42:13;;;;;;;9.82;6.90;;;10.80;55.00;;;;;;5067185;28;20135;-82
2022/03/02 12:44:47;;;;;;;9.90;7.43;;;10.80;53.60;;;;;;5056243;28;20112;-83
2022/03/02 12:47:16;;;;;;;10.38;7.38;;;10.90;52.40;;;;;;5068819;28;20565;-83
2022/03/02 12:49:44;;;;;;;10.82;7.20;;;10.80;53.10;;;;;;5066046;28;20025;-84
2022/03/02 12:52:12;;;;;;;11.90;7.32;;;10.50;52.40;;;;;;5068266;28;20067;-83
2022/03/02 12:54:40;;;;;;;10.18;7.43;;;10.30;53.00;;;;;;5057899;28;20029;-83
2022/03/02 12:57:08;;;;;;;11.15;7.95;;;10.20;53.20;;;;;;5049452;28;20021;-83
2022/03/02 12:59:33;;;;;;;10.85;6.97;;;10.10;53.60;;;;;;5066584;28;20020;-83
2022/03/02 13:02:04;;;;;;;10.30;7.40;;;10.10;54.00;;;;;;5064621;28;20021;-83